sensor_id;sensor_type;location;lat;lon;timestamp;P1;durP1;ratioP1;P2;durP2;ratioP2
31974;SDS011;18500;43.618;1.474;2022-09-09T06:55:30;90.50;;;84.60;;
31974;SDS011;18500;43.618;1.474;2022-09-09T06:57:56;117.60;;;110.18;;
31974;SDS011;18500;43.618;1.474;2022-09-09T07:00:21;107.07;;;99.82;;
31974;SDS011;18500;43.618;1.474;2022-09-09T07:02:47;119.65;;;111.80;;
31974;SDS011;18500;43.618;1.474;2022-09-09T07:05:15;114.20;;;106.72;;
31974;SDS011;18500;43.618;1.474;2022-09-09T07:07:41;180.68;;;170.10;;
31974;SDS011;18500;43.618;1.474;2022-09-09T07:10:07;202.30;;;189.60;;
31974;SDS011;18500;43.618;1.474;2022-09-09T07:12:33;152.25;;;142.55;;
31974;SDS011;18500;43.618;1.474;2022-09-09T07:14:58;131.88;;;123.97;;
31974;SDS011;18500;43.618;1.474;2022-09-09T07:17:25;135.43;;;127.03;;
31974;SDS011;18500;43.618;1.474;2022-09-09T07:19:53;159.98;;;150.45;;
31974;SDS011;18500;43.618;1.474;2022-09-09T07:22:18;196.57;;;184.70;;
31974;SDS011;18500;43.618;1.474;2022-09-09T07:24:45;167.20;;;156.60;;
31974;SDS011;18500;43.618;1.474;2022-09-09T14:43:23;529.17;;;491.13;;
31974;SDS011;18500;43.618;1.474;2022-09-09T14:45:49;515.50;;;479.40;;
31974;SDS011;18500;43.618;1.474;2022-09-09T14:48:16;532.47;;;494.23;;
31974;SDS011;18500;43.618;1.474;2022-09-09T14:50:42;523.70;;;486.15;;
31974;SDS011;18500;43.618;1.474;2022-09-09T14:53:08;976.25;;;871.42;;
31974;SDS011;18500;43.618;1.474;2022-09-09T14:55:35;556.05;;;514.75;;
31974;SDS011;18500;43.618;1.474;2022-09-09T14:58:01;517.00;;;478.15;;
31974;SDS011;18500;43.618;1.474;2022-09-09T15:00:28;458.20;;;425.45;;
31974;SDS011;18500;43.618;1.474;2022-09-09T15:02:54;440.55;;;407.55;;
31974;SDS011;18500;43.618;1.474;2022-09-09T15:05:20;544.92;;;498.92;;
31974;SDS011;18500;43.618;1.474;2022-09-09T15:07:46;421.65;;;392.77;;
31974;SDS011;18500;43.618;1.474;2022-09-09T15:10:13;516.50;;;474.35;;
31974;SDS011;18500;43.618;1.474;2022-09-09T15:12:39;533.60;;;488.90;;
31974;SDS011;18500;43.618;1.474;2022-09-09T15:15:06;444.23;;;411.90;;
31974;SDS011;18500;43.618;1.474;2022-09-09T15:17:33;585.42;;;541.10;;
31974;SDS011;18500;43.618;1.474;2022-09-09T15:19:59;446.33;;;413.85;;
31974;SDS011;18500;43.618;1.474;2022-09-09T15:22:24;431.50;;;401.13;;
31974;SDS011;18500;43.618;1.474;2022-09-09T15:24:50;418.23;;;387.77;;
31974;SDS011;18500;43.618;1.474;2022-09-09T15:27:16;399.65;;;371.40;;
31974;SDS011;18500;43.618;1.474;2022-09-09T15:29:42;422.52;;;392.77;;
31974;SDS011;18500;43.618;1.474;2022-09-09T15:32:09;446.02;;;414.33;;
31974;SDS011;18500;43.618;1.474;2022-09-09T15:34:34;432.75;;;400.13;;
31974;SDS011;18500;43.618;1.474;2022-09-09T15:37:00;401.38;;;374.55;;
31974;SDS011;18500;43.618;1.474;2022-09-09T15:39:26;579.60;;;526.83;;
31974;SDS011;18500;43.618;1.474;2022-09-09T15:41:51;378.27;;;353.70;;
31974;SDS011;18500;43.618;1.474;2022-09-09T15:44:17;372.73;;;347.70;;
31974;SDS011;18500;43.618;1.474;2022-09-09T15:46:50;381.75;;;356.20;;
31974;SDS011;18500;43.618;1.474;2022-09-09T15:49:19;369.10;;;344.17;;
31974;SDS011;18500;43.618;1.474;2022-09-09T15:51:54;782.22;;;699.95;;
31974;SDS011;18500;43.618;1.474;2022-09-09T15:56:52;391.65;;;364.70;;
31974;SDS011;18500;43.618;1.474;2022-09-09T15:59:23;355.40;;;332.45;;
31974;SDS011;18500;43.618;1.474;2022-09-09T16:01:49;436.80;;;405.33;;
31974;SDS011;18500;43.618;1.474;2022-09-09T16:04:18;503.73;;;462.58;;
31974;SDS011;18500;43.618;1.474;2022-09-09T16:06:48;355.13;;;331.80;;
31974;SDS011;18500;43.618;1.474;2022-09-09T16:09:15;379.70;;;354.52;;
31974;SDS011;18500;43.618;1.474;2022-09-09T16:11:41;391.05;;;365.50;;
31974;SDS011;18500;43.618;1.474;2022-09-09T16:14:07;419.65;;;389.15;;
31974;SDS011;18500;43.618;1.474;2022-09-09T16:16:33;383.25;;;357.23;;
31974;SDS011;18500;43.618;1.474;2022-09-09T16:19:02;409.08;;;381.48;;
31974;SDS011;18500;43.618;1.474;2022-09-09T16:21:31;378.70;;;353.90;;
31974;SDS011;18500;43.618;1.474;2022-09-09T16:24:03;409.52;;;381.30;;
31974;SDS011;18500;43.618;1.474;2022-09-09T16:26:30;452.65;;;417.95;;
31974;SDS011;18500;43.618;1.474;2022-09-09T16:28:57;382.98;;;357.17;;
31974;SDS011;18500;43.618;1.474;2022-09-09T16:31:24;379.33;;;353.20;;
31974;SDS011;18500;43.618;1.474;2022-09-09T16:33:51;486.95;;;448.58;;
31974;SDS011;18500;43.618;1.474;2022-09-09T16:36:18;734.28;;;660.80;;
31974;SDS011;18500;43.618;1.474;2022-09-09T16:38:56;495.30;;;459.38;;
31974;SDS011;18500;43.618;1.474;2022-09-09T16:41:23;339.88;;;317.67;;
31974;SDS011;18500;43.618;1.474;2022-09-09T16:43:57;379.20;;;353.40;;
31974;SDS011;18500;43.618;1.474;2022-09-09T16:46:25;500.15;;;463.45;;
31974;SDS011;18500;43.618;1.474;2022-09-09T16:48:52;401.38;;;374.10;;
31974;SDS011;18500;43.618;1.474;2022-09-09T16:51:23;611.45;;;565.63;;
31974;SDS011;18500;43.618;1.474;2022-09-09T16:53:51;497.15;;;461.52;;
31974;SDS011;18500;43.618;1.474;2022-09-09T16:56:19;407.80;;;379.92;;
31974;SDS011;18500;43.618;1.474;2022-09-09T16:58:51;395.50;;;368.38;;
31974;SDS011;18500;43.618;1.474;2022-09-09T17:01:20;516.13;;;478.77;;
31974;SDS011;18500;43.618;1.474;2022-09-09T17:03:45;533.22;;;487.10;;
31974;SDS011;18500;43.618;1.474;2022-09-09T17:06:12;471.58;;;437.00;;
31974;SDS011;18500;43.618;1.474;2022-09-09T17:08:39;521.72;;;483.63;;
31974;SDS011;18500;43.618;1.474;2022-09-09T17:11:16;436.80;;;406.17;;
31974;SDS011;18500;43.618;1.474;2022-09-09T17:13:44;418.30;;;388.52;;
31974;SDS011;18500;43.618;1.474;2022-09-09T17:16:11;487.92;;;452.60;;
31974;SDS011;18500;43.618;1.474;2022-09-09T17:18:38;986.30;;;883.30;;
31974;SDS011;18500;43.618;1.474;2022-09-09T17:21:09;662.72;;;605.60;;
31974;SDS011;18500;43.618;1.474;2022-09-09T17:23:38;535.13;;;494.25;;
31974;SDS011;18500;43.618;1.474;2022-09-09T17:26:04;752.30;;;684.88;;
31974;SDS011;18500;43.618;1.474;2022-09-09T17:28:32;702.78;;;639.72;;
31974;SDS011;18500;43.618;1.474;2022-09-09T17:30:59;962.55;;;859.88;;
31974;SDS011;18500;43.618;1.474;2022-09-09T17:33:29;831.80;;;753.63;;
31974;SDS011;18500;43.618;1.474;2022-09-09T17:35:59;1179.07;;;999.90;;
31974;SDS011;18500;43.618;1.474;2022-09-09T17:38:27;1008.45;;;900.60;;
31974;SDS011;18500;43.618;1.474;2022-09-09T17:43:29;692.03;;;631.95;;
31974;SDS011;18500;43.618;1.474;2022-09-09T17:45:55;723.75;;;657.92;;
31974;SDS011;18500;43.618;1.474;2022-09-09T17:48:30;824.53;;;740.35;;
31974;SDS011;18500;43.618;1.474;2022-09-09T17:50:58;751.25;;;681.22;;
31974;SDS011;18500;43.618;1.474;2022-09-09T17:53:24;524.78;;;485.48;;
31974;SDS011;18500;43.618;1.474;2022-09-09T17:55:50;753.38;;;682.38;;
31974;SDS011;18500;43.618;1.474;2022-09-09T17:58:16;1079.93;;;916.65;;
31974;SDS011;18500;43.618;1.474;2022-09-09T18:00:41;716.60;;;650.17;;
31974;SDS011;18500;43.618;1.474;2022-09-09T18:03:07;630.55;;;575.85;;
31974;SDS011;18500;43.618;1.474;2022-09-09T18:05:33;645.10;;;590.50;;
31974;SDS011;18500;43.618;1.474;2022-09-09T18:07:59;624.67;;;573.00;;
31974;SDS011;18500;43.618;1.474;2022-09-09T18:10:25;496.75;;;460.45;;
31974;SDS011;18500;43.618;1.474;2022-09-09T18:12:50;403.85;;;376.38;;
31974;SDS011;18500;43.618;1.474;2022-09-09T18:15:16;495.58;;;458.15;;
31974;SDS011;18500;43.618;1.474;2022-09-09T18:17:42;385.27;;;358.15;;
31974;SDS011;18500;43.618;1.474;2022-09-09T18:20:08;374.02;;;348.20;;
31974;SDS011;18500;43.618;1.474;2022-09-09T18:22:35;552.47;;;505.65;;
31974;SDS011;18500;43.618;1.474;2022-09-09T18:25:01;413.38;;;382.58;;
31974;SDS011;18500;43.618;1.474;2022-09-09T18:27:26;401.80;;;373.42;;
31974;SDS011;18500;43.618;1.474;2022-09-09T18:29:53;530.45;;;491.20;;
31974;SDS011;18500;43.618;1.474;2022-09-09T18:32:18;399.35;;;370.40;;
31974;SDS011;18500;43.618;1.474;2022-09-09T18:34:44;416.48;;;386.35;;
31974;SDS011;18500;43.618;1.474;2022-09-09T18:37:10;367.23;;;340.40;;
31974;SDS011;18500;43.618;1.474;2022-09-09T18:39:36;677.25;;;616.65;;
31974;SDS011;18500;43.618;1.474;2022-09-09T18:42:01;988.60;;;884.80;;
31974;SDS011;18500;43.618;1.474;2022-09-09T18:44:29;785.15;;;711.75;;
31974;SDS011;18500;43.618;1.474;2022-09-09T18:46:57;939.13;;;844.65;;
31974;SDS011;18500;43.618;1.474;2022-09-09T18:49:23;640.85;;;583.90;;
31974;SDS011;18500;43.618;1.474;2022-09-09T18:51:50;627.58;;;575.45;;
31974;SDS011;18500;43.618;1.474;2022-09-09T18:56:50;926.08;;;832.85;;
31974;SDS011;18500;43.618;1.474;2022-09-09T18:59:17;1133.47;;;991.42;;
31974;SDS011;18500;43.618;1.474;2022-09-09T19:01:46;975.33;;;871.40;;
31974;SDS011;18500;43.618;1.474;2022-09-09T19:04:13;896.65;;;808.38;;
31974;SDS011;18500;43.618;1.474;2022-09-09T19:06:40;1047.80;;;936.63;;
31974;SDS011;18500;43.618;1.474;2022-09-09T19:09:09;1135.20;;;990.83;;
31974;SDS011;18500;43.618;1.474;2022-09-09T19:11:36;681.08;;;624.00;;
31974;SDS011;18500;43.618;1.474;2022-09-09T19:14:03;1219.90;;;999.90;;
31974;SDS011;18500;43.618;1.474;2022-09-09T19:16:31;878.72;;;790.72;;
31974;SDS011;18500;43.618;1.474;2022-09-09T19:18:59;702.92;;;642.22;;
31974;SDS011;18500;43.618;1.474;2022-09-09T19:21:26;670.88;;;614.22;;
31974;SDS011;18500;43.618;1.474;2022-09-09T19:23:55;559.47;;;517.33;;
31974;SDS011;18500;43.618;1.474;2022-09-09T19:26:24;643.63;;;589.85;;
31974;SDS011;18500;43.618;1.474;2022-09-09T19:28:51;516.53;;;475.98;;
31974;SDS011;18500;43.618;1.474;2022-09-09T19:31:17;745.92;;;677.90;;
31974;SDS011;18500;43.618;1.474;2022-09-09T19:33:44;596.95;;;548.95;;
31974;SDS011;18500;43.618;1.474;2022-09-09T19:36:11;545.42;;;501.52;;
31974;SDS011;18500;43.618;1.474;2022-09-09T19:38:39;630.03;;;578.75;;
31974;SDS011;18500;43.618;1.474;2022-09-09T19:41:10;608.47;;;558.92;;
31974;SDS011;18500;43.618;1.474;2022-09-09T19:43:38;569.47;;;525.72;;
31974;SDS011;18500;43.618;1.474;2022-09-09T19:46:05;768.95;;;695.97;;
31974;SDS011;18500;43.618;1.474;2022-09-09T19:48:36;536.40;;;496.40;;
31974;SDS011;18500;43.618;1.474;2022-09-09T19:51:03;476.23;;;441.65;;
31974;SDS011;18500;43.618;1.474;2022-09-09T19:53:31;553.45;;;511.48;;
31974;SDS011;18500;43.618;1.474;2022-09-09T19:56:00;461.15;;;427.50;;
31974;SDS011;18500;43.618;1.474;2022-09-09T19:58:27;561.42;;;517.72;;
31974;SDS011;18500;43.618;1.474;2022-09-09T20:00:55;416.42;;;385.27;;
31974;SDS011;18500;43.618;1.474;2022-09-09T20:03:21;425.92;;;395.75;;
31974;SDS011;18500;43.618;1.474;2022-09-09T20:05:47;397.13;;;369.27;;
31974;SDS011;18500;43.618;1.474;2022-09-09T20:08:13;341.88;;;318.67;;
31974;SDS011;18500;43.618;1.474;2022-09-09T20:10:39;443.52;;;412.60;;
31974;SDS011;18500;43.618;1.474;2022-09-09T20:13:13;333.63;;;309.80;;
31974;SDS011;18500;43.618;1.474;2022-09-09T20:15:39;398.10;;;368.83;;
31974;SDS011;18500;43.618;1.474;2022-09-09T20:18:05;399.52;;;370.80;;
31974;SDS011;18500;43.618;1.474;2022-09-09T20:20:31;399.17;;;369.73;;
31974;SDS011;18500;43.618;1.474;2022-09-09T20:22:57;388.45;;;360.58;;
31974;SDS011;18500;43.618;1.474;2022-09-09T20:25:23;368.63;;;342.38;;
31974;SDS011;18500;43.618;1.474;2022-09-09T20:27:49;394.48;;;366.63;;
31974;SDS011;18500;43.618;1.474;2022-09-09T20:30:15;370.52;;;344.77;;
31974;SDS011;18500;43.618;1.474;2022-09-09T20:32:40;397.70;;;368.85;;
31974;SDS011;18500;43.618;1.474;2022-09-09T20:35:06;388.40;;;360.77;;
31974;SDS011;18500;43.618;1.474;2022-09-09T20:37:32;428.40;;;397.73;;
31974;SDS011;18500;43.618;1.474;2022-09-09T20:39:58;405.70;;;377.77;;
31974;SDS011;18500;43.618;1.474;2022-09-09T20:42:26;444.55;;;412.50;;
31974;SDS011;18500;43.618;1.474;2022-09-09T20:44:51;395.48;;;367.55;;
31974;SDS011;18500;43.618;1.474;2022-09-09T20:47:17;411.83;;;383.25;;
31974;SDS011;18500;43.618;1.474;2022-09-09T20:49:43;390.50;;;364.20;;
31974;SDS011;18500;43.618;1.474;2022-09-09T20:52:08;396.40;;;368.85;;
31974;SDS011;18500;43.618;1.474;2022-09-09T20:54:35;458.13;;;426.80;;
31974;SDS011;18500;43.618;1.474;2022-09-09T20:57:02;377.23;;;350.98;;
31974;SDS011;18500;43.618;1.474;2022-09-09T20:59:29;372.42;;;346.52;;
31974;SDS011;18500;43.618;1.474;2022-09-09T21:01:55;372.38;;;346.40;;
31974;SDS011;18500;43.618;1.474;2022-09-09T21:04:21;372.83;;;348.33;;
